createdAt,value
2022-08-07T00:02:40.681Z,81.72
2022-08-07T00:05:05.834Z,81.73
2022-08-07T00:07:40.189Z,81.69
2022-08-07T00:10:27.154Z,81.75
2022-08-07T00:13:00.116Z,81.78
2022-08-07T00:15:38.308Z,82.00
2022-08-07T00:18:18.808Z,82.54
2022-08-07T00:20:49.566Z,82.18
2022-08-07T00:23:17.928Z,82.46
2022-08-07T00:25:52.420Z,82.16
2022-08-07T00:28:33.426Z,82.79
2022-08-07T00:31:04.397Z,83.03
2022-08-07T00:33:36.781Z,83.09
2022-08-07T00:36:08.289Z,83.02
2022-08-07T00:38:39.126Z,83.25
2022-08-07T00:41:09.931Z,83.43
2022-08-07T00:44:00.351Z,83.76
2022-08-07T00:46:33.954Z,83.16
2022-08-07T00:49:03.791Z,83.00
2022-08-07T00:51:57.288Z,82.81
2022-08-07T00:54:20.687Z,82.90
2022-08-07T00:56:51.003Z,82.67
2022-08-07T00:59:20.041Z,83.58
2022-08-07T01:02:02.778Z,82.99
2022-08-07T01:04:42.929Z,82.76
2022-08-07T01:07:12.047Z,83.13
2022-08-07T01:10:04.755Z,83.02
2022-08-07T01:12:31.123Z,83.36
2022-08-07T01:15:00.992Z,83.21
2022-08-07T01:17:30.650Z,83.39
2022-08-07T01:20:07.903Z,83.77
2022-08-07T01:22:46.857Z,84.08
2022-08-07T01:25:53.669Z,84.66
2022-08-07T01:28:15.946Z,84.44
2022-08-07T01:30:45.740Z,84.91
2022-08-07T01:33:15.213Z,84.86
2022-08-07T01:35:54.483Z,84.98
2022-08-07T01:38:25.833Z,85.39
2022-08-07T01:41:00.660Z,85.61
2022-08-07T01:43:34.665Z,85.72
2022-08-07T01:46:08.372Z,86.36
2022-08-07T01:48:42.297Z,86.12
2022-08-07T01:52:02.570Z,86.67
2022-08-07T01:54:33.402Z,86.04
2022-08-07T01:57:08.282Z,86.64
2022-08-07T01:59:44.011Z,86.33
2022-08-07T02:02:32.708Z,86.30
2022-08-07T02:05:15.839Z,86.06
2022-08-07T02:07:51.192Z,86.40
2022-08-07T02:10:26.360Z,86.01
2022-08-07T02:12:57.620Z,86.28
2022-08-07T02:15:30.532Z,86.61
2022-08-07T02:18:03.916Z,86.90
2022-08-07T02:20:34.430Z,86.46
2022-08-07T02:23:06.111Z,86.86
2022-08-07T02:26:30.460Z,86.27
2022-08-07T02:28:29.758Z,87.38
2022-08-07T02:31:00.056Z,87.45
2022-08-07T02:34:03.494Z,86.99
2022-08-07T02:36:33.905Z,87.73
2022-08-07T02:39:16.082Z,88.44
2022-08-07T02:41:54.189Z,88.73
2022-08-07T02:44:27.481Z,88.61
2022-08-07T02:47:01.108Z,88.82
2022-08-07T02:49:55.881Z,89.20
2022-08-07T02:52:31.153Z,89.15
2022-08-07T02:55:04.541Z,89.14
2022-08-07T02:57:47.451Z,89.85
2022-08-07T03:00:18.209Z,90.03
2022-08-07T03:02:54.458Z,89.36
2022-08-07T03:05:25.336Z,89.26
2022-08-07T03:08:07.971Z,89.44
2022-08-07T03:10:40.987Z,89.89
2022-08-07T03:13:19.927Z,90.35
2022-08-07T03:15:56.516Z,90.92
2022-08-07T03:18:34.584Z,90.94
2022-08-07T03:21:08.726Z,91.60
2022-08-07T03:24:18.171Z,91.04
2022-08-07T03:26:33.149Z,91.53
2022-08-07T03:29:11.125Z,91.65
2022-08-07T03:31:46.611Z,91.94
2022-08-07T03:34:22.179Z,92.26
2022-08-07T03:36:53.179Z,92.17
2022-08-07T03:39:59.719Z,92.37
2022-08-07T03:42:13.247Z,92.86
2022-08-07T03:44:43.143Z,93.76
2022-08-07T03:47:25.643Z,94.37
2022-08-07T03:49:57.752Z,94.26
2022-08-07T03:52:28.894Z,94.57
2022-08-07T03:55:07.047Z,94.79
2022-08-07T03:58:33.726Z,94.66
2022-08-07T04:00:30.403Z,95.52
2022-08-07T04:03:04.395Z,95.78
2022-08-07T04:05:40.245Z,95.15
2022-08-07T04:08:12.425Z,94.79
2022-08-07T04:10:54.726Z,95.16
2022-08-07T04:14:09.279Z,95.07
2022-08-07T04:16:30.839Z,95.40
2022-08-07T04:19:01.840Z,95.66
2022-08-07T04:21:33.518Z,95.80
2022-08-07T04:24:05.900Z,96.71
2022-08-07T04:26:36.070Z,97.51
2022-08-07T04:29:04.154Z,97.09
2022-08-07T04:31:39.225Z,97.15
2022-08-07T04:34:32.919Z,97.47
2022-08-07T04:37:08.045Z,98.02
2022-08-07T04:39:47.985Z,99.13
2022-08-07T04:42:18.307Z,99.25
2022-08-07T04:44:54.798Z,99.13
2022-08-07T04:47:58.822Z,99.10
2022-08-07T04:50:35.854Z,99.05
2022-08-07T04:53:27.756Z,99.03
2022-08-07T04:58:09.812Z,99.26
2022-08-07T05:00:07.922Z,99.82
2022-08-07T05:02:01.422Z,100.00
2022-08-07T05:04:43.880Z,100.00
2022-08-07T05:07:21.133Z,100.00
2022-08-07T05:09:59.202Z,100.00
2022-08-07T05:12:36.194Z,100.00
2022-08-07T05:15:23.039Z,99.76
2022-08-07T05:17:57.673Z,100.00
2022-08-07T05:20:32.158Z,100.00
2022-08-07T05:23:05.408Z,99.86
2022-08-07T05:26:11.671Z,99.09
2022-08-07T05:28:36.444Z,98.87
2022-08-07T05:31:14.655Z,99.31
2022-08-07T05:34:01.299Z,99.11
2022-08-07T05:36:36.097Z,98.66
2022-08-07T05:40:16.880Z,97.88
2022-08-07T05:42:01.565Z,97.58
2022-08-07T05:44:36.443Z,97.36
2022-08-07T05:47:18.819Z,97.02
2022-08-07T05:49:50.459Z,97.36
2022-08-07T05:52:20.744Z,97.37
2022-08-07T05:55:10.518Z,96.42
2022-08-07T05:57:42.051Z,96.36
2022-08-07T06:00:15.954Z,96.20
2022-08-07T06:02:48.900Z,96.08
2022-08-07T06:05:20.398Z,95.94
2022-08-07T06:08:13.361Z,96.59
2022-08-07T06:10:51.365Z,95.91
2022-08-07T06:14:10.538Z,95.12
2022-08-07T06:16:13.525Z,94.22
2022-08-07T06:18:43.162Z,93.66
2022-08-07T06:22:16.585Z,92.64
2022-08-07T06:24:37.844Z,90.87
2022-08-07T06:26:58.783Z,90.99
2022-08-07T06:29:33.967Z,90.74
2022-08-07T06:32:02.150Z,90.40
2022-08-07T06:34:32.633Z,90.79
2022-08-07T06:37:02.644Z,89.28
2022-08-07T06:40:16.702Z,89.06
2022-08-07T06:42:33.003Z,88.60
2022-08-07T06:45:04.740Z,87.98
2022-08-07T06:47:48.171Z,88.86
2022-08-07T06:50:21.722Z,87.36
2022-08-07T06:52:55.816Z,85.46
2022-08-07T06:55:53.769Z,85.77
2022-08-07T06:58:17.972Z,85.85
2022-08-07T07:00:53.057Z,84.65
2022-08-07T07:03:39.915Z,83.53
2022-08-07T07:06:11.206Z,81.38
2022-08-07T07:08:46.601Z,80.60
2022-08-07T07:12:09.167Z,80.05
2022-08-07T07:14:08.340Z,78.68
2022-08-07T07:16:49.831Z,76.12
2022-08-07T07:19:56.404Z,74.62
2022-08-07T07:22:36.364Z,73.05
2022-08-07T07:25:02.746Z,71.90
2022-08-07T07:27:55.516Z,72.75
2022-08-07T07:30:37.908Z,67.95
2022-08-07T07:33:09.085Z,70.25
2022-08-07T07:35:44.025Z,69.13
2022-08-07T07:38:24.683Z,65.06
2022-08-07T07:40:58.845Z,64.78
2022-08-07T07:43:47.670Z,63.72
2022-08-07T07:46:38.221Z,63.82
2022-08-07T07:50:29.800Z,63.69
2022-08-07T07:52:07.915Z,61.03
2022-08-07T07:54:38.823Z,59.98
2022-08-07T07:57:14.305Z,59.88
2022-08-07T07:59:52.620Z,58.73
2022-08-07T08:02:33.992Z,56.67
2022-08-07T08:05:05.322Z,58.34
2022-08-07T08:07:42.477Z,57.56
2022-08-07T08:10:35.614Z,55.85
2022-08-07T08:13:10.353Z,54.15
2022-08-07T08:15:59.159Z,53.21
2022-08-07T08:18:30.429Z,52.44
2022-08-07T08:21:01.442Z,51.50
2022-08-07T08:23:50.883Z,49.81
2022-08-07T08:26:38.194Z,50.43
2022-08-07T08:29:08.306Z,48.65
2022-08-07T08:31:59.038Z,47.86
2022-08-07T08:34:31.401Z,48.40
2022-08-07T08:37:01.049Z,47.77
2022-08-07T08:39:39.800Z,47.39
2022-08-07T08:42:26.906Z,46.03
2022-08-07T08:45:04.230Z,46.31
2022-08-07T08:50:34.797Z,44.50
2022-08-07T08:53:19.244Z,45.14
2022-08-07T08:55:54.276Z,46.22
2022-08-07T08:58:35.175Z,43.09
2022-08-07T09:01:16.138Z,42.31
2022-08-07T09:03:57.962Z,42.22
2022-08-07T09:06:42.710Z,39.25
2022-08-07T09:09:33.210Z,40.61
2022-08-07T09:12:30.444Z,40.39
2022-08-07T09:16:22.759Z,39.47
2022-08-07T09:18:22.792Z,40.50
2022-08-07T09:21:05.016Z,39.48
2022-08-07T09:24:32.306Z,39.22
2022-08-07T09:26:47.823Z,39.84
2022-08-07T09:30:06.492Z,37.83
2022-08-07T09:32:33.185Z,36.79
2022-08-07T09:36:05.187Z,38.51
2022-08-07T09:38:12.047Z,38.71
2022-08-07T09:40:55.380Z,38.00
2022-08-07T09:44:03.033Z,39.59
2022-08-07T09:47:52.418Z,37.09
2022-08-07T09:50:01.910Z,36.84
2022-08-07T09:52:35.293Z,38.34
2022-08-07T09:55:28.860Z,36.02
2022-08-07T09:58:42.459Z,36.57
2022-08-07T10:01:53.209Z,35.28
2022-08-07T10:04:38.328Z,36.59
2022-08-07T10:07:31.694Z,35.52
2022-08-07T10:10:53.764Z,34.56
2022-08-07T10:14:01.027Z,34.87
2022-08-07T10:17:14.489Z,33.45
2022-08-07T10:19:58.292Z,33.36
2022-08-07T10:23:01.644Z,34.13
2022-08-07T10:25:45.789Z,33.89
2022-08-07T10:28:51.342Z,33.19
2022-08-07T10:31:45.272Z,32.37
2022-08-07T10:34:33.449Z,32.04
2022-08-07T10:37:15.278Z,32.08
2022-08-07T10:40:05.583Z,31.47
2022-08-07T10:42:43.995Z,31.39
2022-08-07T10:45:44.754Z,30.06
2022-08-07T10:48:34.605Z,30.34
2022-08-07T10:51:16.382Z,31.38
2022-08-07T10:54:16.270Z,30.76
2022-08-07T10:56:58.314Z,29.36
2022-08-07T10:59:47.312Z,29.56
2022-08-07T11:02:27.588Z,30.17
2022-08-07T11:05:12.667Z,29.69
2022-08-07T11:07:58.441Z,28.81
2022-08-07T11:10:38.328Z,27.84
2022-08-07T11:13:42.391Z,28.10
2022-08-07T11:16:09.524Z,27.87
2022-08-07T11:18:43.906Z,27.62
2022-08-07T11:21:31.926Z,28.15
2022-08-07T11:24:08.459Z,27.75
2022-08-07T11:26:48.096Z,27.43
2022-08-07T11:29:42.884Z,29.16
2022-08-07T11:32:25.429Z,27.46
2022-08-07T11:34:58.496Z,27.38
2022-08-07T11:38:08.730Z,26.78
2022-08-07T11:40:37.190Z,26.63
2022-08-07T11:43:15.622Z,26.76
2022-08-07T11:46:06.501Z,26.81
2022-08-07T11:49:50.555Z,25.81
2022-08-07T11:52:03.159Z,27.00
2022-08-07T11:54:57.474Z,26.77
2022-08-07T11:58:00.614Z,27.67
2022-08-07T12:00:32.467Z,25.48
2022-08-07T12:03:42.313Z,26.87
2022-08-07T12:06:51.579Z,25.42
2022-08-07T12:09:32.637Z,24.89
2022-08-07T12:12:09.465Z,26.32
2022-08-07T12:14:52.707Z,24.80
2022-08-07T12:17:33.704Z,25.59
2022-08-07T12:20:18.612Z,24.94
2022-08-07T12:23:14.367Z,24.82
2022-08-07T12:26:06.251Z,23.59
2022-08-07T12:28:57.954Z,23.97
2022-08-07T12:31:53.189Z,24.17
2022-08-07T12:34:22.748Z,24.74
2022-08-07T12:36:55.755Z,23.04
2022-08-07T12:39:42.874Z,24.29
2022-08-07T12:42:14.123Z,24.08
2022-08-07T12:44:47.614Z,22.93
2022-08-07T12:47:31.063Z,24.20
2022-08-07T12:50:38.182Z,24.67
2022-08-07T12:53:05.248Z,24.50
2022-08-07T12:56:03.128Z,23.10
2022-08-07T12:58:39.318Z,24.71
2022-08-07T13:01:16.837Z,24.91
2022-08-07T13:04:31.637Z,25.08
2022-08-07T13:08:14.121Z,25.06
2022-08-07T13:10:39.497Z,23.81
2022-08-07T13:13:47.823Z,24.12
2022-08-07T13:16:30.722Z,24.12
2022-08-07T13:19:11.546Z,24.06
2022-08-07T13:22:04.004Z,22.77
2022-08-07T13:24:52.517Z,23.32
2022-08-07T13:28:05.755Z,22.84
2022-08-07T13:30:19.448Z,23.74
2022-08-07T13:34:31.224Z,23.12
2022-08-07T13:36:05.524Z,23.92
2022-08-07T13:38:41.959Z,23.95
2022-08-07T13:41:22.271Z,24.03
2022-08-07T13:43:56.461Z,23.40
2022-08-07T13:46:33.492Z,24.16
2022-08-07T13:49:19.724Z,24.01
2022-08-07T13:52:22.757Z,23.05
2022-08-07T13:54:49.079Z,22.23
2022-08-07T13:57:23.879Z,22.84
2022-08-07T13:59:55.877Z,22.80
2022-08-07T14:02:33.284Z,22.67
2022-08-07T14:05:11.119Z,22.95
2022-08-07T14:08:00.960Z,23.58
2022-08-07T14:10:42.315Z,24.33
2022-08-07T14:13:16.780Z,24.74
2022-08-07T14:15:53.074Z,23.95
2022-08-07T14:18:33.213Z,24.35
2022-08-07T14:21:11.871Z,24.77
2022-08-07T14:24:01.218Z,24.33
2022-08-07T14:26:40.507Z,24.27
2022-08-07T14:30:06.630Z,23.04
2022-08-07T14:32:04.125Z,23.14
2022-08-07T14:34:46.395Z,23.75
2022-08-07T14:37:16.319Z,23.94
2022-08-07T14:40:17.256Z,23.78
2022-08-07T14:43:01.228Z,23.48
2022-08-07T14:45:46.642Z,22.20
2022-08-07T14:48:19.891Z,23.24
2022-08-07T14:50:53.227Z,22.95
2022-08-07T14:54:10.003Z,23.35
2022-08-07T14:56:14.008Z,24.23
2022-08-07T14:58:48.056Z,23.46
2022-08-07T15:01:23.349Z,23.02
2022-08-07T15:03:53.396Z,24.17
2022-08-07T15:06:28.796Z,24.56
2022-08-07T15:09:58.511Z,25.28
2022-08-07T15:17:55.151Z,25.74
2022-08-07T15:20:32.978Z,25.96
2022-08-07T15:23:16.984Z,27.39
2022-08-07T15:25:54.929Z,28.01
2022-08-07T15:28:34.317Z,27.65
2022-08-07T15:31:12.161Z,29.07
2022-08-07T15:33:43.032Z,29.73
2022-08-07T15:36:12.849Z,30.17
2022-08-07T15:38:51.661Z,30.17
2022-08-07T15:42:46.003Z,30.85
2022-08-07T15:44:24.047Z,30.40
2022-08-07T15:47:03.295Z,30.10
2022-08-07T15:50:05.003Z,30.85
2022-08-07T15:52:31.769Z,30.48
2022-08-07T15:55:08.893Z,31.57
2022-08-07T15:57:48.704Z,32.07
2022-08-07T16:00:31.733Z,32.03
2022-08-07T16:03:05.596Z,31.38
2022-08-07T16:05:36.114Z,31.68
2022-08-07T16:08:31.348Z,32.07
2022-08-07T16:11:04.026Z,32.72
2022-08-07T16:14:09.043Z,32.82
2022-08-07T16:16:57.039Z,32.56
2022-08-07T16:19:59.003Z,33.02
2022-08-07T16:22:55.414Z,32.98
2022-08-07T16:25:55.006Z,34.02
2022-08-07T16:30:07.783Z,33.26
2022-08-07T16:31:50.859Z,32.55
2022-08-07T16:34:33.881Z,32.30
2022-08-07T16:38:06.538Z,32.55
2022-08-07T16:41:04.325Z,32.10
2022-08-07T16:44:47.439Z,31.74
2022-08-07T16:47:45.408Z,33.08
2022-08-07T16:50:39.046Z,31.62
2022-08-07T16:54:01.444Z,31.97
2022-08-07T16:56:37.570Z,32.69
2022-08-07T16:59:17.348Z,31.88
2022-08-07T17:02:03.118Z,31.72
2022-08-07T17:04:50.866Z,31.82
2022-08-07T17:07:51.975Z,31.52
2022-08-07T17:10:32.283Z,31.93
2022-08-07T17:13:41.312Z,32.23
2022-08-07T17:16:17.471Z,32.92
2022-08-07T17:19:00.627Z,32.46
2022-08-07T17:21:51.208Z,32.86
2022-08-07T17:24:50.605Z,33.30
2022-08-07T17:27:32.817Z,33.45
2022-08-07T17:30:15.971Z,33.54
2022-08-07T17:34:08.248Z,33.08
2022-08-07T17:36:01.855Z,33.39
2022-08-07T17:38:35.444Z,33.63
2022-08-07T17:42:00.848Z,33.93
2022-08-07T17:44:06.540Z,34.21
2022-08-07T17:46:46.703Z,35.02
2022-08-07T17:49:24.879Z,34.13
2022-08-07T17:52:06.190Z,34.70
2022-08-07T17:54:54.548Z,34.56
2022-08-07T17:57:56.711Z,34.36
2022-08-07T18:00:33.426Z,34.70
2022-08-07T18:03:19.447Z,35.13
2022-08-07T18:06:02.233Z,35.70
2022-08-07T18:09:01.146Z,35.42
2022-08-07T18:12:16.404Z,36.24
2022-08-07T18:14:28.830Z,36.36
2022-08-07T18:17:00.150Z,36.58
2022-08-07T18:21:11.605Z,36.96
2022-08-07T18:22:36.536Z,36.84
2022-08-07T18:25:19.393Z,37.27
2022-08-07T18:28:21.534Z,37.48
2022-08-07T18:31:05.380Z,37.60
2022-08-07T18:34:40.873Z,37.90
2022-08-07T18:38:55.628Z,38.15
2022-08-07T18:40:42.701Z,38.33
2022-08-07T18:43:14.942Z,38.79
2022-08-07T18:46:25.205Z,39.20
2022-08-07T18:50:05.101Z,39.11
2022-08-07T18:52:34.936Z,39.66
2022-08-07T18:54:41.083Z,39.43
2022-08-07T18:57:29.765Z,39.88
2022-08-07T19:00:34.076Z,39.97
2022-08-07T19:03:03.999Z,40.28
2022-08-07T19:06:04.333Z,40.56
2022-08-07T19:08:46.502Z,41.11
2022-08-07T19:11:35.673Z,41.23
2022-08-07T19:14:19.847Z,41.22
2022-08-07T19:17:05.429Z,41.95
2022-08-07T19:19:53.140Z,45.14
2022-08-07T19:22:31.409Z,48.05
2022-08-07T19:25:05.642Z,46.24
2022-08-07T19:28:56.833Z,46.84
2022-08-07T19:31:03.464Z,48.47
2022-08-07T19:33:33.571Z,49.25
2022-08-07T19:36:08.858Z,49.20
2022-08-07T19:38:53.365Z,50.55
2022-08-07T19:41:44.465Z,49.43
2022-08-07T19:44:21.374Z,49.87
2022-08-07T19:46:57.949Z,50.94
2022-08-07T19:49:57.074Z,51.53
2022-08-07T19:52:22.632Z,52.91
2022-08-07T19:54:55.756Z,52.69
2022-08-07T19:57:59.984Z,53.36
2022-08-07T20:00:28.740Z,54.16
2022-08-07T20:03:35.114Z,54.05
2022-08-07T20:06:01.957Z,54.82
2022-08-07T20:08:32.705Z,54.35
2022-08-07T20:11:10.217Z,54.14
2022-08-07T20:13:44.480Z,55.22
2022-08-07T20:16:34.874Z,56.20
2022-08-07T20:19:10.231Z,55.58
2022-08-07T20:21:41.839Z,56.25
2022-08-07T20:24:20.437Z,56.31
2022-08-07T20:26:52.238Z,56.43
2022-08-07T20:29:48.907Z,56.84
2022-08-07T20:32:22.348Z,57.43
2022-08-07T20:34:58.009Z,57.11
2022-08-07T20:37:34.090Z,59.25
2022-08-07T20:40:33.087Z,58.73
2022-08-07T20:42:57.971Z,59.95
2022-08-07T20:45:33.322Z,60.50
2022-08-07T20:48:28.606Z,61.82
2022-08-07T20:51:01.308Z,60.98
2022-08-07T20:54:02.778Z,61.69
2022-08-07T20:56:26.117Z,62.70
2022-08-07T20:58:58.700Z,62.10
2022-08-07T21:01:29.540Z,62.47
2022-08-07T21:04:22.100Z,63.63
2022-08-07T21:06:57.320Z,64.13
2022-08-07T21:09:51.830Z,64.49
2022-08-07T21:12:28.716Z,64.92
2022-08-07T21:15:00.848Z,65.51
2022-08-07T21:18:01.849Z,65.61
2022-08-07T21:20:26.571Z,65.97
2022-08-07T21:23:07.344Z,66.92
2022-08-07T21:25:50.907Z,67.09
2022-08-07T21:28:49.799Z,68.48
2022-08-07T21:31:49.916Z,67.96
2022-08-07T21:34:31.853Z,68.37
2022-08-07T21:37:12.677Z,68.88
2022-08-07T21:39:56.411Z,69.67
2022-08-07T21:42:42.721Z,70.75
2022-08-07T21:46:10.863Z,71.85
2022-08-07T21:48:28.787Z,72.26
2022-08-07T21:51:19.322Z,73.23
2022-08-07T21:53:54.553Z,73.42
2022-08-07T21:56:40.157Z,73.86
2022-08-07T21:59:30.419Z,74.87
2022-08-07T22:02:13.205Z,74.72
2022-08-07T22:04:52.554Z,76.01
2022-08-07T22:07:31.408Z,75.18
2022-08-07T22:10:07.208Z,75.26
2022-08-07T22:12:44.164Z,75.94
2022-08-07T22:16:43.982Z,76.58
2022-08-07T22:18:08.454Z,77.31
2022-08-07T22:20:45.649Z,77.23
2022-08-07T22:23:21.686Z,77.03
2022-08-07T22:26:00.502Z,77.51
2022-08-07T22:28:35.105Z,77.71
2022-08-07T22:31:11.170Z,78.49
2022-08-07T22:33:56.622Z,78.27
2022-08-07T22:36:38.540Z,78.66
2022-08-07T22:39:18.651Z,79.15
2022-08-07T22:42:18.902Z,79.26
2022-08-07T22:44:58.785Z,79.60
2022-08-07T22:48:01.068Z,80.16
2022-08-07T22:50:46.712Z,80.21
2022-08-07T22:54:08.013Z,80.50
2022-08-07T22:56:35.011Z,80.93
2022-08-07T22:59:41.505Z,82.22
2022-08-07T23:02:31.715Z,82.54
2022-08-07T23:06:09.433Z,83.33
2022-08-07T23:08:46.289Z,84.27
2022-08-07T23:11:41.287Z,84.33
2022-08-07T23:14:31.320Z,84.71
2022-08-07T23:17:37.566Z,86.23
2022-08-07T23:20:51.518Z,86.77
2022-08-07T23:24:06.120Z,86.82
2022-08-07T23:26:23.391Z,88.36
2022-08-07T23:29:43.708Z,89.05
2022-08-07T23:34:19.718Z,89.22
2022-08-07T23:35:23.635Z,89.25
2022-08-07T23:38:19.335Z,90.59
2022-08-07T23:41:17.530Z,90.33
2022-08-07T23:44:02.111Z,90.93
2022-08-07T23:47:01.203Z,91.41
2022-08-07T23:50:00.166Z,91.87
2022-08-07T23:53:11.792Z,91.05
2022-08-07T23:55:52.071Z,91.26
2022-08-07T23:58:27.925Z,91.09
